createdAt,value
2014-06-17T00:00:38.177Z,18.94
2014-06-17T00:01:43.186Z,18.78
2014-06-17T00:02:47.880Z,18.6
2014-06-17T00:03:52.574Z,18.79
2014-06-17T00:04:57.565Z,18.91
2014-06-17T00:06:02.573Z,19.29
2014-06-17T00:07:07.249Z,19.01
2014-06-17T00:08:11.941Z,18.44
2014-06-17T00:09:16.617Z,18.75
2014-06-17T00:10:21.607Z,18.91
2014-06-17T00:11:26.296Z,19.1
2014-06-17T00:12:30.972Z,18.88
2014-06-17T00:13:35.662Z,19.03
2014-06-17T00:14:40.648Z,19
2014-06-17T00:15:45.323Z,19.06
2014-06-17T00:16:50.012Z,19.19
2014-06-17T00:17:54.702Z,19.27
2014-06-17T00:18:59.377Z,19.3
2014-06-17T00:20:04.066Z,19.08
2014-06-17T00:21:09.038Z,18.99
2014-06-17T00:22:13.727Z,19.02
2014-06-17T00:23:18.417Z,19.06
2014-06-17T00:24:23.091Z,19.08
2014-06-17T00:25:27.780Z,19.18
2014-06-17T00:26:32.470Z,19.12
2014-06-17T00:27:37.456Z,19.16
2014-06-17T00:28:42.131Z,19.31
2014-06-17T00:29:46.821Z,19.18
2014-06-17T00:30:51.509Z,19
2014-06-17T00:31:56.183Z,19.06
2014-06-17T00:33:01.169Z,19.01
2014-06-17T00:34:05.859Z,18.92
2014-06-17T00:35:10.533Z,18.98
2014-06-17T00:36:15.519Z,18.95
2014-06-17T00:37:20.208Z,19.07
2014-06-17T00:38:25.178Z,18.96
2014-06-17T00:39:29.869Z,19.01
2014-06-17T00:40:34.558Z,19.21
2014-06-17T00:41:39.544Z,18.52
2014-06-17T00:42:44.220Z,18.2
2014-06-17T00:43:48.909Z,18.52
2014-06-17T00:44:53.599Z,18.64
2014-06-17T00:45:58.272Z,18.74
2014-06-17T00:47:02.962Z,18.77
2014-06-17T00:48:07.651Z,18.92
2014-06-17T00:49:12.325Z,18.84
2014-06-17T00:50:17.015Z,18.86
2014-06-17T00:51:22.000Z,18.94
2014-06-17T00:52:26.675Z,19.11
2014-06-17T00:53:31.365Z,19.15
2014-06-17T00:54:36.053Z,19.29
2014-06-17T00:55:40.728Z,19.24
2014-06-17T00:56:45.418Z,19.05
2014-06-17T00:57:50.389Z,19.2
2014-06-17T00:58:55.079Z,19.08
2014-06-17T00:59:59.768Z,19.15
2014-06-17T01:01:04.442Z,18.98
2014-06-17T01:02:09.131Z,18.92
2014-06-17T01:03:14.117Z,18.95
2014-06-17T01:04:18.792Z,18.93
2014-06-17T01:05:23.481Z,18.94
2014-06-17T01:06:28.170Z,18.95
2014-06-17T01:07:32.844Z,19.21
2014-06-17T01:08:37.534Z,19.16
2014-06-17T01:09:42.223Z,19.21
2014-06-17T01:10:47.211Z,18.96
2014-06-17T01:11:51.885Z,18.81
2014-06-17T01:12:56.574Z,19.11
2014-06-17T01:14:01.264Z,19.22
2014-06-17T01:15:05.938Z,19.13
2014-06-17T01:16:10.627Z,18.81
2014-06-17T01:17:15.318Z,18.76
2014-06-17T01:18:19.992Z,18.74
2014-06-17T01:19:24.680Z,19
2014-06-17T01:20:29.355Z,18.97
2014-06-17T01:21:34.341Z,18.89
2014-06-17T01:22:39.328Z,19.04
2014-06-17T01:23:44.002Z,19.08
2014-06-17T01:24:48.691Z,19.24
2014-06-17T01:25:53.365Z,18.92
2014-06-17T01:26:57.367Z,18.8
2014-06-17T01:28:02.057Z,18.76
2014-06-17T01:29:06.730Z,19.02
2014-06-17T01:30:11.420Z,18.92
2014-06-17T01:31:16.093Z,18.73
2014-06-17T01:32:20.782Z,18.87
2014-06-17T01:33:25.770Z,18.64
2014-06-17T01:34:30.458Z,18.64
2014-06-17T01:35:35.132Z,18.84
2014-06-17T01:36:40.118Z,18.82
2014-06-17T01:37:44.808Z,18.62
2014-06-17T01:38:49.484Z,18.73
2014-06-17T01:39:54.470Z,18.75
2014-06-17T01:40:59.160Z,18.94
2014-06-17T01:42:04.130Z,18.74
2014-06-17T01:43:08.819Z,18.75
2014-06-17T01:44:13.508Z,18.68
2014-06-17T01:45:18.183Z,18.43
2014-06-17T01:46:22.888Z,18.2
2014-06-17T01:47:27.561Z,18.3
2014-06-17T01:48:32.251Z,18.53
2014-06-17T01:49:36.925Z,18.73
2014-06-17T01:50:41.614Z,18.7
2014-06-17T01:51:46.306Z,18.85
2014-06-17T01:52:50.980Z,18.89
2014-06-17T01:53:55.966Z,18.81
2014-06-17T01:55:00.655Z,18.82
2014-06-17T01:56:05.329Z,18.68
2014-06-17T01:57:10.315Z,18.66
2014-06-17T01:58:15.004Z,18.7
2014-06-17T01:59:19.992Z,18.75
2014-06-17T02:00:24.962Z,18.85
2014-06-17T02:01:29.651Z,18.74
2014-06-17T02:02:34.325Z,18.66
2014-06-17T02:03:39.311Z,18.76
2014-06-17T02:04:43.985Z,18.86
2014-06-17T02:05:48.675Z,18.8
2014-06-17T02:06:53.366Z,18.69
2014-06-17T02:07:58.055Z,18.69
2014-06-17T02:09:02.728Z,18.56
2014-06-17T02:10:07.716Z,18.67
2014-06-17T02:11:12.405Z,18.46
2014-06-17T02:12:17.079Z,18.35
2014-06-17T02:13:22.362Z,18.51
2014-06-17T02:14:27.051Z,18.38
2014-06-17T02:15:31.725Z,18.54
2014-06-17T02:16:36.414Z,18.64
2014-06-17T02:17:41.104Z,18.62
2014-06-17T02:18:45.778Z,18.66
2014-06-17T02:19:50.468Z,18.66
2014-06-17T02:20:55.159Z,18.56
2014-06-17T02:22:00.145Z,18.36
2014-06-17T02:23:05.115Z,18.24
2014-06-17T02:24:09.805Z,18.47
2014-06-17T02:25:14.479Z,18.42
2014-06-17T02:26:19.168Z,18.53
2014-06-17T02:27:24.154Z,18.33
2014-06-17T02:28:28.843Z,18.33
2014-06-17T02:29:33.814Z,18.16
2014-06-17T02:30:38.800Z,18.29
2014-06-17T02:31:43.490Z,18.08
2014-06-17T02:32:48.181Z,17.8
2014-06-17T02:33:53.168Z,18
2014-06-17T02:34:57.842Z,18.07
2014-06-17T02:36:02.827Z,18.26
2014-06-17T02:37:07.829Z,18.44
2014-06-17T02:38:12.800Z,18.35
2014-06-17T02:39:17.489Z,18.47
2014-06-17T02:40:22.179Z,18.62
2014-06-17T02:41:26.868Z,18.44
2014-06-17T02:42:31.558Z,18.54
2014-06-17T02:43:36.247Z,18.58
2014-06-17T02:44:41.234Z,18.46
2014-06-17T02:45:45.922Z,18.52
2014-06-17T02:46:50.615Z,18.5
2014-06-17T02:47:55.288Z,18.19
2014-06-17T02:48:59.978Z,18.14
2014-06-17T02:50:04.667Z,18.26
2014-06-17T02:51:09.653Z,18.16
2014-06-17T02:52:14.343Z,18.08
2014-06-17T02:53:19.032Z,17.98
2014-06-17T02:54:23.033Z,18.01
2014-06-17T02:55:28.005Z,18.08
2014-06-17T02:56:32.694Z,18.09
2014-06-17T02:57:37.384Z,18.15
2014-06-17T02:58:42.073Z,18.03
2014-06-17T02:59:47.060Z,18.2
2014-06-17T03:00:51.735Z,18.3
2014-06-17T03:01:56.425Z,18.24
2014-06-17T03:03:01.114Z,18.14
2014-06-17T03:04:06.100Z,18.03
2014-06-17T03:05:10.774Z,18.22
2014-06-17T03:06:15.463Z,18.28
2014-06-17T03:07:20.747Z,18.36
2014-06-17T03:08:25.436Z,18.23
2014-06-17T03:09:30.125Z,18.07
2014-06-17T03:10:34.799Z,17.82
2014-06-17T03:11:39.489Z,17.9
2014-06-17T03:12:44.177Z,17.88
2014-06-17T03:13:49.167Z,17.75
2014-06-17T03:14:54.137Z,17.48
2014-06-17T03:15:58.826Z,17.73
2014-06-17T03:17:03.516Z,17.8
2014-06-17T03:18:08.502Z,17.74
2014-06-17T03:19:13.191Z,17.72
2014-06-17T03:20:17.865Z,17.66
2014-06-17T03:21:22.555Z,17.8
2014-06-17T03:22:27.244Z,17.72
2014-06-17T03:23:31.245Z,17.75
2014-06-17T03:24:35.935Z,17.97
2014-06-17T03:25:40.907Z,17.85
2014-06-17T03:26:45.596Z,17.91
2014-06-17T03:27:50.288Z,17.57
2014-06-17T03:28:54.961Z,17.61
2014-06-17T03:29:59.947Z,17.85
2014-06-17T03:31:04.621Z,17.68
2014-06-17T03:32:09.309Z,17.7
2014-06-17T03:33:13.983Z,17.8
2014-06-17T03:34:18.674Z,17.66
2014-06-17T03:35:23.347Z,17.7
2014-06-17T03:36:28.036Z,17.64
2014-06-17T03:37:32.725Z,17.67
2014-06-17T03:38:37.416Z,17.85
2014-06-17T03:39:42.089Z,17.72
2014-06-17T03:40:47.075Z,17.52
2014-06-17T03:41:51.768Z,17.66
2014-06-17T03:42:56.441Z,17.62
2014-06-17T03:44:01.427Z,17.96
2014-06-17T03:45:06.115Z,17.93
2014-06-17T03:46:10.789Z,17.8
2014-06-17T03:47:15.777Z,17.48
2014-06-17T03:48:20.763Z,17.6
2014-06-17T03:49:25.437Z,17.72
2014-06-17T03:50:30.422Z,17.86
2014-06-17T03:51:35.113Z,17.44
2014-06-17T03:52:39.787Z,17.65
2014-06-17T03:53:44.772Z,17.61
2014-06-17T03:54:49.746Z,17.68
2014-06-17T03:55:54.434Z,17.83
2014-06-17T03:56:59.124Z,17.92
2014-06-17T03:58:03.798Z,17.49
2014-06-17T03:59:08.487Z,17.38
2014-06-17T04:00:13.177Z,17.51
2014-06-17T04:01:18.147Z,17.06
2014-06-17T04:02:23.134Z,17.47
2014-06-17T04:03:28.105Z,17.21
2014-06-17T04:04:32.793Z,17.11
2014-06-17T04:05:37.483Z,17.15
2014-06-17T04:06:42.172Z,17.29
2014-06-17T04:07:46.848Z,17.24
2014-06-17T04:08:51.537Z,17.41
2014-06-17T04:09:56.508Z,17.32
2014-06-17T04:11:01.198Z,17.18
2014-06-17T04:12:05.872Z,17.52
2014-06-17T04:13:10.561Z,17.54
2014-06-17T04:14:15.251Z,17.42
2014-06-17T04:15:20.220Z,17.73
2014-06-17T04:16:24.910Z,17.59
2014-06-17T04:17:29.599Z,17.59
2014-06-17T04:18:34.273Z,17.34
2014-06-17T04:19:38.964Z,17.56
2014-06-17T04:20:43.637Z,17.45
2014-06-17T04:21:48.326Z,17.38
2014-06-17T04:22:53.001Z,17.33
2014-06-17T04:23:57.988Z,17.48
2014-06-17T04:25:02.975Z,17.57
2014-06-17T04:26:07.649Z,17.69
2014-06-17T04:27:12.635Z,17.41
2014-06-17T04:28:17.323Z,17.4
2014-06-17T04:29:21.997Z,17.06
2014-06-17T04:30:26.688Z,17.21
2014-06-17T04:31:31.361Z,17.52
2014-06-17T04:32:36.050Z,17.48
2014-06-17T04:33:40.724Z,17.75
2014-06-17T04:34:45.414Z,17.62
2014-06-17T04:35:50.103Z,17.55
2014-06-17T04:36:55.076Z,17.58
2014-06-17T04:38:00.061Z,17.66
2014-06-17T04:39:04.752Z,17.62
2014-06-17T04:40:09.425Z,17.73
2014-06-17T04:41:14.115Z,17.64
2014-06-17T04:42:18.789Z,17.72
2014-06-17T04:43:23.775Z,17.56
2014-06-17T04:44:28.745Z,17.85
2014-06-17T04:45:33.450Z,17.92
2014-06-17T04:46:38.124Z,17.85
2014-06-17T04:47:42.814Z,17.73
2014-06-17T04:48:47.784Z,17.9
2014-06-17T04:49:52.773Z,17.74
2014-06-17T04:50:57.447Z,17.55
2014-06-17T04:52:02.432Z,17.59
2014-06-17T04:53:07.403Z,17.69
2014-06-17T04:54:12.389Z,17.77
2014-06-17T04:55:17.080Z,17.82
2014-06-17T04:56:21.753Z,17.9
2014-06-17T04:57:26.444Z,17.62
2014-06-17T04:58:31.414Z,17.7
2014-06-17T04:59:36.103Z,17.91
2014-06-17T05:00:40.794Z,17.8
2014-06-17T05:01:45.468Z,17.77
2014-06-17T05:02:50.157Z,17.86
2014-06-17T05:03:54.830Z,18.02
2014-06-17T05:04:59.519Z,17.82
2014-06-17T05:06:04.193Z,17.25
2014-06-17T05:07:09.180Z,17.25
2014-06-17T05:08:13.870Z,17.72
2014-06-17T05:09:18.856Z,18.16
2014-06-17T05:10:23.842Z,18.28
2014-06-17T05:11:28.516Z,17.99
2014-06-17T05:12:33.205Z,18.04
2014-06-17T05:13:37.192Z,18.34
2014-06-17T05:14:42.178Z,18.6
2014-06-17T05:15:46.867Z,18.5
2014-06-17T05:16:51.540Z,18.37
2014-06-17T05:17:56.233Z,18.36
2014-06-17T05:19:00.906Z,18.19
2014-06-17T05:20:05.595Z,18.2
2014-06-17T05:21:10.286Z,18.15
2014-06-17T05:22:14.960Z,18.18
2014-06-17T05:23:19.664Z,18.18
2014-06-17T05:24:24.353Z,18.15
2014-06-17T05:25:29.043Z,18.15
2014-06-17T05:26:33.717Z,18.09
2014-06-17T05:27:38.703Z,18.2
2014-06-17T05:28:43.379Z,18.14
2014-06-17T05:29:48.364Z,18.05
2014-06-17T05:30:53.054Z,17.98
2014-06-17T05:31:57.743Z,17.41
2014-06-17T05:33:02.730Z,17.5
2014-06-17T05:34:07.716Z,17.84
2014-06-17T05:35:12.390Z,18.2
2014-06-17T05:36:17.376Z,18.09
2014-06-17T05:37:22.363Z,17.93
2014-06-17T05:38:27.052Z,18.2
2014-06-17T05:39:31.742Z,18.34
2014-06-17T05:40:36.711Z,18.44
2014-06-17T05:41:41.404Z,18.11
2014-06-17T05:42:46.092Z,18.06
2014-06-17T05:43:50.783Z,18.16
2014-06-17T05:44:55.472Z,18.27
2014-06-17T05:45:59.474Z,18.28
2014-06-17T05:47:04.147Z,18.08
2014-06-17T05:48:08.838Z,17.96
2014-06-17T05:49:13.526Z,18.04
2014-06-17T05:50:18.216Z,18.2
2014-06-17T05:51:22.891Z,18.32
2014-06-17T05:52:27.580Z,17.99
2014-06-17T05:53:32.270Z,18.13
2014-06-17T05:54:36.944Z,18.04
2014-06-17T05:55:41.634Z,17.86
2014-06-17T05:56:46.323Z,17.94
2014-06-17T05:57:51.310Z,18.15
2014-06-17T05:58:56.296Z,18.23
2014-06-17T06:00:00.985Z,17.9
2014-06-17T06:01:05.674Z,17.68
2014-06-17T06:02:10.364Z,17.92
2014-06-17T06:03:15.053Z,17.81
2014-06-17T06:04:19.727Z,17.9
2014-06-17T06:05:24.714Z,17.83
2014-06-17T06:06:29.403Z,17.98
2014-06-17T06:07:34.092Z,18.08
2014-06-17T06:08:38.781Z,17.99
2014-06-17T06:09:43.455Z,18.12
2014-06-17T06:10:48.144Z,17.88
2014-06-17T06:11:52.835Z,18
2014-06-17T06:12:57.807Z,17.92
2014-06-17T06:14:01.809Z,18.06
2014-06-17T06:15:06.795Z,18.11
2014-06-17T06:16:11.469Z,18.13
2014-06-17T06:17:16.455Z,18.05
2014-06-17T06:18:21.442Z,18.36
2014-06-17T06:19:26.116Z,18.37
2014-06-17T06:20:30.805Z,18.19
2014-06-17T06:21:35.479Z,18.27
2014-06-17T06:22:40.184Z,18.46
2014-06-17T06:23:44.857Z,18.37
2014-06-17T06:24:49.843Z,18.15
2014-06-17T06:25:54.535Z,18.34
2014-06-17T06:26:59.209Z,18.7
2014-06-17T06:28:03.898Z,18.64
2014-06-17T06:29:08.869Z,18.46
2014-06-17T06:30:13.558Z,18.41
2014-06-17T06:31:18.232Z,18.2
2014-06-17T06:32:22.922Z,18.18
2014-06-17T06:33:27.611Z,18.18
2014-06-17T06:34:32.285Z,18.24
2014-06-17T06:35:36.974Z,18.21
2014-06-17T06:36:41.960Z,18.13
2014-06-17T06:37:46.634Z,18.16
2014-06-17T06:38:51.325Z,18.13
2014-06-17T06:39:56.312Z,18.04
2014-06-17T06:41:00.986Z,18.14
2014-06-17T06:42:05.675Z,18.2
2014-06-17T06:43:10.365Z,18.09
2014-06-17T06:44:15.334Z,18.32
2014-06-17T06:45:20.024Z,18.32
2014-06-17T06:46:24.996Z,18.25
2014-06-17T06:47:29.685Z,18.22
2014-06-17T06:48:34.672Z,18.47
2014-06-17T06:49:39.345Z,18.27
2014-06-17T06:50:44.332Z,18.46
2014-06-17T06:51:48.333Z,18.58
2014-06-17T06:52:53.007Z,18.46
2014-06-17T06:53:57.698Z,18.78
2014-06-17T06:55:02.372Z,18.72
2014-06-17T06:56:07.062Z,18.8
2014-06-17T06:57:11.750Z,18.78
2014-06-17T06:58:16.737Z,18.71
2014-06-17T06:59:21.411Z,18.74
2014-06-17T07:00:26.100Z,18.56
2014-06-17T07:01:30.790Z,18.93
2014-06-17T07:02:35.464Z,19.03
2014-06-17T07:03:40.155Z,18.94
2014-06-17T07:04:44.844Z,19.04
2014-06-17T07:05:49.518Z,19.31
2014-06-17T07:06:53.520Z,18.86
2014-06-17T07:07:58.194Z,19.06
2014-06-17T07:09:02.882Z,19.32
2014-06-17T07:10:07.556Z,19.36
2014-06-17T07:11:12.247Z,19.73
2014-06-17T07:12:17.232Z,19.9
2014-06-17T07:13:21.906Z,19.6
2014-06-17T07:14:26.596Z,19.84
2014-06-17T07:15:31.285Z,20.1
2014-06-17T07:16:35.959Z,20.47
2014-06-17T07:17:40.649Z,20.26
2014-06-17T07:18:45.322Z,20.21
2014-06-17T07:19:50.013Z,19.98
2014-06-17T07:20:54.702Z,19.91
2014-06-17T07:21:59.377Z,19.5
2014-06-17T07:23:04.066Z,19.41
2014-06-17T07:24:08.756Z,19.18
2014-06-17T07:25:13.446Z,19.55
2014-06-17T07:26:18.135Z,19.82
2014-06-17T07:27:22.826Z,19.66
2014-06-17T07:28:27.499Z,19.64
2014-06-17T07:29:32.486Z,19.6
2014-06-17T07:30:37.174Z,19.92
2014-06-17T07:31:41.865Z,19.7
2014-06-17T07:32:46.554Z,19.65
2014-06-17T07:33:51.227Z,19.8
2014-06-17T07:34:55.918Z,19.73
2014-06-17T07:36:00.903Z,19.92
2014-06-17T07:37:05.578Z,20.2
2014-06-17T07:38:10.268Z,20.16
2014-06-17T07:39:15.254Z,20.18
2014-06-17T07:40:20.240Z,20.27
2014-06-17T07:41:24.914Z,19.58
2014-06-17T07:42:29.604Z,19.95
2014-06-17T07:43:34.278Z,20.01
2014-06-17T07:44:38.968Z,20.06
2014-06-17T07:45:43.657Z,20.16
2014-06-17T07:46:48.346Z,20.22
2014-06-17T07:47:53.021Z,20.27
2014-06-17T07:48:58.007Z,20.26
2014-06-17T07:50:02.697Z,20.46
2014-06-17T07:51:07.386Z,20.62
2014-06-17T07:52:12.075Z,20.06
2014-06-17T07:53:16.749Z,20.4
2014-06-17T07:54:21.438Z,20.54
2014-06-17T07:55:26.128Z,20.68
2014-06-17T07:56:31.114Z,20.41
2014-06-17T07:57:35.788Z,20.86
2014-06-17T07:58:40.493Z,21.09
2014-06-17T07:59:45.183Z,21.22
2014-06-17T08:00:49.871Z,21.5
2014-06-17T08:01:54.546Z,21.56
2014-06-17T08:02:59.236Z,21.42
2014-06-17T08:04:03.927Z,21.57
2014-06-17T08:05:08.601Z,21.62
2014-06-17T08:06:13.289Z,21.7
2014-06-17T08:07:17.980Z,21.91
2014-06-17T08:08:22.669Z,21.97
2014-06-17T08:09:27.359Z,21.76
2014-06-17T08:10:32.064Z,21.85
2014-06-17T08:11:36.738Z,21.06
2014-06-17T08:12:41.427Z,19.3
2014-06-17T08:13:46.117Z,20.48
2014-06-17T08:14:50.119Z,21.14
2014-06-17T08:15:54.793Z,21.75
2014-06-17T08:16:59.482Z,21.88
2014-06-17T08:18:04.172Z,22.1
2014-06-17T08:19:08.846Z,22.46
2014-06-17T08:20:13.535Z,21.99
2014-06-17T08:21:18.521Z,20.75
2014-06-17T08:22:23.211Z,21.24
2014-06-17T08:23:27.885Z,21.91
2014-06-17T08:24:32.574Z,22
2014-06-17T08:25:37.264Z,22.24
2014-06-17T08:26:41.937Z,22.18
2014-06-17T08:27:46.628Z,22.18
2014-06-17T08:28:51.318Z,21.88
2014-06-17T08:29:56.304Z,22
2014-06-17T08:31:00.978Z,22.53
2014-06-17T08:32:05.667Z,22.66
2014-06-17T08:33:10.357Z,22.85
2014-06-17T08:34:15.031Z,22.7
2014-06-17T08:35:20.017Z,23.29
2014-06-17T08:36:24.707Z,23.23
2014-06-17T08:37:29.677Z,23.42
2014-06-17T08:38:34.366Z,22.97
2014-06-17T08:39:39.352Z,23.35
2014-06-17T08:40:44.057Z,23.37
2014-06-17T08:41:48.747Z,23.18
2014-06-17T08:42:53.422Z,23.31
2014-06-17T08:43:58.112Z,23.32
2014-06-17T08:45:02.802Z,23.11
2014-06-17T08:46:07.492Z,23.26
2014-06-17T08:47:12.165Z,22.83
2014-06-17T08:48:16.856Z,22.8
2014-06-17T08:49:21.544Z,22.94
2014-06-17T08:50:26.235Z,22.78
2014-06-17T08:51:30.909Z,22.87
2014-06-17T08:52:35.598Z,23.26
2014-06-17T08:53:40.584Z,23.43
2014-06-17T08:54:45.571Z,23.38
2014-06-17T08:55:49.573Z,23.15
2014-06-17T08:56:54.263Z,23.33
2014-06-17T08:57:58.995Z,23.42
2014-06-17T08:59:03.739Z,23
2014-06-17T09:00:08.452Z,22.86
2014-06-17T09:01:13.477Z,23.18
2014-06-17T09:02:18.204Z,23.35
2014-06-17T09:03:22.892Z,23.62
2014-06-17T09:04:27.595Z,23.46
2014-06-17T09:05:32.298Z,23.42
2014-06-17T09:06:37.001Z,23.5
2014-06-17T09:07:41.688Z,23.35
2014-06-17T09:08:46.382Z,23.03
2014-06-17T09:09:51.374Z,23.31
2014-06-17T09:10:56.365Z,22.8
2014-06-17T09:12:01.066Z,23.21
2014-06-17T09:13:05.070Z,23.56
2014-06-17T09:14:09.761Z,22.28
2014-06-17T09:15:14.750Z,22.29
2014-06-17T09:16:19.424Z,23.04
2014-06-17T09:17:24.413Z,23.27
2014-06-17T09:18:29.400Z,23.1
2014-06-17T09:19:34.075Z,23.22
2014-06-17T09:20:38.765Z,23.3
2014-06-17T09:21:43.752Z,23.07
2014-06-17T09:22:48.442Z,23.1
2014-06-17T09:23:53.132Z,23.54
2014-06-17T09:24:57.822Z,23.48
2014-06-17T09:26:02.514Z,22.86
2014-06-17T09:27:07.188Z,22.82
2014-06-17T09:28:12.174Z,22.19
2014-06-17T09:29:16.864Z,22.76
2014-06-17T09:30:21.866Z,23.21
2014-06-17T09:31:26.554Z,23.7
2014-06-17T09:32:31.245Z,23.71
2014-06-17T09:33:35.934Z,24.1
2014-06-17T09:34:40.607Z,24.29
2014-06-17T09:35:45.594Z,24.35
2014-06-17T09:36:50.283Z,24.39
2014-06-17T09:37:55.269Z,24.44
2014-06-17T09:38:59.962Z,24.32
2014-06-17T09:40:04.650Z,24.42
2014-06-17T09:41:09.324Z,22.72
2014-06-17T09:42:14.014Z,23.68
2014-06-17T09:43:18.703Z,23.08
2014-06-17T09:44:23.690Z,23.76
2014-06-17T09:45:28.378Z,23.99
2014-06-17T09:46:33.069Z,24.07
2014-06-17T09:47:38.039Z,24.2
2014-06-17T09:48:42.729Z,23.98
2014-06-17T09:49:47.714Z,23.82
2014-06-17T09:50:52.404Z,24.02
2014-06-17T09:51:57.079Z,23.97
2014-06-17T09:53:01.769Z,23.95
2014-06-17T09:54:06.755Z,24.14
2014-06-17T09:55:11.445Z,23.96
2014-06-17T09:56:16.431Z,24.01
2014-06-17T09:57:21.121Z,24.17
2014-06-17T09:58:26.107Z,24.43
2014-06-17T09:59:30.780Z,24.38
2014-06-17T10:00:35.470Z,24.56
2014-06-17T10:01:40.160Z,24.61
2014-06-17T10:02:44.849Z,24.48
2014-06-17T10:03:49.538Z,24.34
2014-06-17T10:04:54.212Z,24.24
2014-06-17T10:05:58.901Z,24.04
2014-06-17T10:07:03.890Z,23.75
2014-06-17T10:08:08.579Z,23.65
2014-06-17T10:09:13.268Z,23.86
2014-06-17T10:10:17.943Z,22.8
2014-06-17T10:11:22.930Z,22.94
2014-06-17T10:12:27.619Z,23.31
2014-06-17T10:13:32.308Z,23.55
2014-06-17T10:14:36.983Z,23.2
2014-06-17T10:15:41.984Z,23.16
2014-06-17T10:16:46.659Z,23.63
2014-06-17T10:17:51.644Z,23.83
2014-06-17T10:18:56.632Z,24.14
2014-06-17T10:20:01.321Z,24.16
2014-06-17T10:21:06.011Z,23.44
2014-06-17T10:22:10.699Z,23.52
2014-06-17T10:23:15.390Z,22.56
2014-06-17T10:24:20.376Z,22.75
2014-06-17T10:25:25.064Z,23.32
2014-06-17T10:26:29.067Z,23.83
2014-06-17T10:27:34.054Z,24.11
2014-06-17T10:28:38.742Z,24.09
2014-06-17T10:29:43.729Z,24.32
2014-06-17T10:30:48.419Z,23.86
2014-06-17T10:31:53.405Z,24.34
2014-06-17T10:32:58.094Z,24.24
2014-06-17T10:34:02.786Z,24.24
2014-06-17T10:35:07.475Z,24.5
2014-06-17T10:36:12.149Z,24.61
2014-06-17T10:37:17.135Z,24.37
2014-06-17T10:38:21.824Z,23.85
2014-06-17T10:39:26.513Z,24.37
2014-06-17T10:40:31.204Z,24.5
2014-06-17T10:41:35.892Z,24.48
2014-06-17T10:42:40.582Z,24.51
2014-06-17T10:43:45.272Z,23.27
2014-06-17T10:44:50.273Z,23.88
2014-06-17T10:45:54.275Z,24.23
2014-06-17T10:46:58.964Z,24.57
2014-06-17T10:48:03.953Z,24.57
2014-06-17T10:49:08.643Z,24.41
2014-06-17T10:50:13.332Z,24.91
2014-06-17T10:51:18.022Z,25.03
2014-06-17T10:52:22.710Z,25.11
2014-06-17T10:53:27.697Z,24.71
2014-06-17T10:54:32.387Z,23.9
2014-06-17T10:55:37.388Z,24.24
2014-06-17T10:56:42.062Z,24.52
2014-06-17T10:57:46.767Z,24.77
2014-06-17T10:58:51.457Z,25.06
2014-06-17T10:59:56.146Z,25.07
2014-06-17T11:01:00.836Z,25.01
2014-06-17T11:02:05.527Z,24.67
2014-06-17T11:03:10.217Z,24.28
2014-06-17T11:04:15.203Z,24.66
2014-06-17T11:05:19.892Z,24.52
2014-06-17T11:06:24.582Z,24.42
2014-06-17T11:07:29.271Z,24.42
2014-06-17T11:08:33.961Z,24.8
2014-06-17T11:09:38.650Z,24.98
2014-06-17T11:10:43.341Z,24.72
2014-06-17T11:11:48.030Z,24.24
2014-06-17T11:12:52.720Z,23.87
2014-06-17T11:13:57.409Z,23.01
2014-06-17T11:15:02.099Z,23.77
2014-06-17T11:16:07.084Z,24.29
2014-06-17T11:17:11.775Z,24.4
2014-06-17T11:18:16.464Z,24.83
2014-06-17T11:19:21.451Z,24.91
2014-06-17T11:20:26.140Z,24.8
2014-06-17T11:21:30.830Z,25.02
2014-06-17T11:22:35.535Z,24.83
2014-06-17T11:23:40.224Z,24.41
2014-06-17T11:24:44.914Z,24.8
2014-06-17T11:25:49.603Z,24.2
2014-06-17T11:26:54.293Z,24.4
2014-06-17T11:27:58.982Z,24.76
2014-06-17T11:29:03.969Z,24.86
2014-06-17T11:30:08.659Z,24.58
2014-06-17T11:31:13.645Z,24.54
2014-06-17T11:32:18.632Z,24.9
2014-06-17T11:33:23.618Z,24.82
2014-06-17T11:34:28.308Z,24
2014-06-17T11:35:32.982Z,24.18
2014-06-17T11:36:37.984Z,23.1
2014-06-17T11:37:42.673Z,22.63
2014-06-17T11:38:47.363Z,23.2
2014-06-17T11:39:52.350Z,23.56
2014-06-17T11:40:57.039Z,23.47
2014-06-17T11:42:02.026Z,23.62
2014-06-17T11:43:06.714Z,23.76
2014-06-17T11:44:11.404Z,24.09
2014-06-17T11:45:16.390Z,24.38
2014-06-17T11:46:21.080Z,24.5
2014-06-17T11:47:25.769Z,24.4
2014-06-17T11:48:30.443Z,24.73
2014-06-17T11:49:35.133Z,24.79
2014-06-17T11:50:39.821Z,24.85
2014-06-17T11:51:44.511Z,24.36
2014-06-17T11:52:49.201Z,24.42
2014-06-17T11:53:53.890Z,24.52
2014-06-17T11:54:58.564Z,24.06
2014-06-17T11:56:03.254Z,23.24
2014-06-17T11:57:07.945Z,23.46
2014-06-17T11:58:12.634Z,24.16
2014-06-17T11:59:17.620Z,24.44
2014-06-17T12:00:22.310Z,24.69
2014-06-17T12:01:27.296Z,24.98
2014-06-17T12:02:31.970Z,25.26
2014-06-17T12:03:36.660Z,25.24
2014-06-17T12:04:41.645Z,25.31
2014-06-17T12:05:46.631Z,25.26
2014-06-17T12:06:51.322Z,25.18
2014-06-17T12:07:56.011Z,25.21
2014-06-17T12:09:00.684Z,24.98
2014-06-17T12:10:05.392Z,25.34
2014-06-17T12:11:10.082Z,25.64
2014-06-17T12:12:14.755Z,25.75
2014-06-17T12:13:19.460Z,25.26
2014-06-17T12:14:24.446Z,25.1
2014-06-17T12:15:29.136Z,25.36
2014-06-17T12:16:33.825Z,25.52
2014-06-17T12:17:38.499Z,25.05
2014-06-17T12:18:43.189Z,24.34
2014-06-17T12:19:47.877Z,24.64
2014-06-17T12:20:52.567Z,24.59
2014-06-17T12:21:57.554Z,23.98
2014-06-17T12:23:02.243Z,24.65
2014-06-17T12:24:06.934Z,25.03
2014-06-17T12:25:11.717Z,25.47
2014-06-17T12:26:16.407Z,25.85
2014-06-17T12:27:21.439Z,25.82
2014-06-17T12:28:26.160Z,25.7
2014-06-17T12:29:30.834Z,25.66
2014-06-17T12:30:35.524Z,25.56
2014-06-17T12:31:40.214Z,25.31
2014-06-17T12:32:44.902Z,25
2014-06-17T12:33:49.576Z,25.31
2014-06-17T12:34:54.281Z,25.41
2014-06-17T12:35:58.971Z,25.44
2014-06-17T12:37:03.660Z,25.22
2014-06-17T12:38:08.336Z,25.19
2014-06-17T12:39:13.026Z,25.43
2014-06-17T12:40:17.715Z,25.54
2014-06-17T12:41:22.419Z,25.45
2014-06-17T12:42:28.157Z,25.69
2014-06-17T12:43:32.893Z,25.96
2014-06-17T12:44:37.878Z,26.05
2014-06-17T12:45:42.552Z,25.88
2014-06-17T12:46:47.554Z,25.93
2014-06-17T12:47:52.228Z,25.56
2014-06-17T12:48:57.214Z,25.94
2014-06-17T12:50:01.935Z,25.86
2014-06-17T12:51:06.611Z,25.82
2014-06-17T12:52:11.301Z,25.74
2014-06-17T12:53:15.990Z,25.58
2014-06-17T12:54:20.680Z,25.54
2014-06-17T12:55:25.666Z,25.76
2014-06-17T12:56:30.355Z,25.53
2014-06-17T12:57:35.044Z,25.3
2014-06-17T12:58:40.016Z,25.75
2014-06-17T12:59:44.705Z,25.18
2014-06-17T13:00:49.394Z,23.45
2014-06-17T13:01:54.083Z,23.71
2014-06-17T13:02:58.773Z,23.57
2014-06-17T13:04:03.462Z,23.7
2014-06-17T13:05:08.154Z,23.76
2014-06-17T13:06:12.843Z,24.36
2014-06-17T13:07:17.814Z,23.99
2014-06-17T13:08:21.832Z,24.31
2014-06-17T13:09:26.505Z,24.44
2014-06-17T13:10:31.194Z,24.57
2014-06-17T13:11:35.883Z,24.25
2014-06-17T13:12:40.591Z,24.47
2014-06-17T13:13:44.592Z,24.69
2014-06-17T13:14:49.282Z,24.48
2014-06-17T13:15:53.956Z,24.65
2014-06-17T13:16:58.661Z,24.9
2014-06-17T13:18:03.647Z,24.2
2014-06-17T13:19:08.321Z,24.59
2014-06-17T13:20:13.011Z,24.44
2014-06-17T13:21:17.700Z,24.59
2014-06-17T13:22:22.405Z,24.06
2014-06-17T13:23:27.392Z,24.12
2014-06-17T13:24:32.065Z,24.11
2014-06-17T13:25:36.754Z,24.39
2014-06-17T13:26:41.741Z,24.41
2014-06-17T13:27:46.430Z,23.85
2014-06-17T13:28:51.416Z,23.61
2014-06-17T13:29:56.403Z,23.48
2014-06-17T13:31:01.092Z,23.34
2014-06-17T13:32:05.766Z,23.29
2014-06-17T13:33:10.769Z,23.22
2014-06-17T13:34:15.460Z,22.89
2014-06-17T13:35:20.148Z,22.72
2014-06-17T13:36:25.135Z,22.94
2014-06-17T13:37:29.809Z,22.18
2014-06-17T13:38:34.499Z,21.57
2014-06-17T13:39:39.187Z,21.48
2014-06-17T13:40:44.174Z,21.38
2014-06-17T13:41:48.863Z,21.36
2014-06-17T13:42:53.850Z,21.08
2014-06-17T13:43:58.524Z,21.33
2014-06-17T13:45:03.541Z,21.43
2014-06-17T13:46:08.233Z,21.46
2014-06-17T13:47:12.907Z,21.65
2014-06-17T13:48:17.595Z,21.75
2014-06-17T13:49:22.286Z,21.86
2014-06-17T13:50:26.975Z,21.76
2014-06-17T13:51:31.664Z,21.81
2014-06-17T13:52:36.353Z,21.81
2014-06-17T13:53:41.339Z,21.38
2014-06-17T13:54:46.326Z,21.06
2014-06-17T13:55:51.015Z,20.88
2014-06-17T13:56:55.705Z,20.9
2014-06-17T13:58:00.394Z,21.25